Terminal Aerodrome Forecast
Issued by NWS

Home | Current Version | Previous Version | Text Only | Print | Product List | Glossary On
Versions: 1 2 3 4 5 6 7 8 9 10 11 12 13 14 15
000
FTUS41 KILN 250500
TAFLUK
TAF
KLUK 250522Z 2506/2606 16005KT P6SM SCT100 BKN200
     FM250900 17007KT P6SM VCSH BKN080
     FM251200 21017G25KT P6SM SCT050 BKN080
     FM251700 21014G20KT P6SM VCSH BKN050
     FM252300 19004KT P6SM BKN100=

USA.gov is the U.S. government's official web portal to all federal, state and local government web resources and services.